createdAt,value
2018-09-06T00:01:04.418Z,64.87
2018-09-06T00:03:32.579Z,67.43
2018-09-06T00:06:00.822Z,54.88
2018-09-06T00:08:28.997Z,52.77
2018-09-06T00:10:57.178Z,56.33
2018-09-06T00:13:25.388Z,49.60
2018-09-06T00:15:53.561Z,51.60
2018-09-06T00:18:21.742Z,48.20
2018-09-06T00:20:49.929Z,54.87
2018-09-06T00:23:18.113Z,49.83
2018-09-06T00:25:46.274Z,55.80
2018-09-06T00:28:14.488Z,58.00
2018-09-06T00:30:42.739Z,73.57
2018-09-06T00:33:10.897Z,62.77
2018-09-06T00:35:39.117Z,62.33
2018-09-06T00:38:07.369Z,68.47
2018-09-06T00:40:35.569Z,62.27
2018-09-06T00:43:03.778Z,63.20
2018-09-06T00:45:32.009Z,57.57
2018-09-06T00:48:00.231Z,56.57
2018-09-06T00:50:32.649Z,66.80
2018-09-06T00:53:01.184Z,55.80
2018-09-06T00:55:29.397Z,62.90
2018-09-06T00:57:57.546Z,54.00
2018-09-06T01:00:26.053Z,59.60
2018-09-06T01:02:54.196Z,59.00
2018-09-06T01:05:22.377Z,51.60
2018-09-06T01:07:50.553Z,51.63
2018-09-06T01:10:18.726Z,55.87
2018-09-06T01:12:46.911Z,55.40
2018-09-06T01:15:15.100Z,66.17
2018-09-06T01:17:43.316Z,55.60
2018-09-06T01:20:11.521Z,63.13
2018-09-06T01:22:39.700Z,63.97
2018-09-06T01:25:07.913Z,59.33
2018-09-06T01:27:36.083Z,57.77
2018-09-06T01:30:04.350Z,57.30
2018-09-06T01:32:32.773Z,54.70
2018-09-06T01:35:00.964Z,56.83
2018-09-06T01:37:29.169Z,66.00
2018-09-06T01:39:57.347Z,61.27
2018-09-06T01:42:25.555Z,70.13
2018-09-06T01:44:53.731Z,71.83
2018-09-06T01:47:21.912Z,89.40
2018-09-06T01:49:50.142Z,86.03
2018-09-06T01:52:18.292Z,97.87
2018-09-06T01:54:46.448Z,102.30
2018-09-06T01:57:14.668Z,90.90
2018-09-06T01:59:42.823Z,92.53
2018-09-06T02:02:10.980Z,85.93
2018-09-06T02:04:39.814Z,86.90
2018-09-06T02:07:08.080Z,95.60
2018-09-06T02:09:36.422Z,83.40
2018-09-06T02:12:04.606Z,77.50
2018-09-06T02:14:32.756Z,84.90
2018-09-06T02:17:00.950Z,79.53
2018-09-06T02:19:29.142Z,84.87
2018-09-06T02:21:57.600Z,81.07
2018-09-06T02:24:25.808Z,74.40
2018-09-06T02:26:53.912Z,88.50
2018-09-06T02:29:22.118Z,84.03
2018-09-06T02:31:50.287Z,86.03
2018-09-06T02:34:18.461Z,84.87
2018-09-06T02:36:46.664Z,105.93
2018-09-06T02:39:14.818Z,102.07
2018-09-06T02:41:43.011Z,91.97
2018-09-06T02:44:11.176Z,118.23
2018-09-06T02:46:39.366Z,114.13
2018-09-06T02:49:07.555Z,104.07
2018-09-06T02:51:35.706Z,96.03
2018-09-06T02:54:03.912Z,100.73
2018-09-06T02:56:32.060Z,99.07
2018-09-06T02:59:00.228Z,100.67
2018-09-06T03:01:28.421Z,108.27
2018-09-06T03:03:56.584Z,93.00
2018-09-06T03:06:24.768Z,106.37
2018-09-06T03:08:53.012Z,102.87
2018-09-06T03:11:23.706Z,107.47
2018-09-06T03:13:52.394Z,110.07
2018-09-06T03:16:20.569Z,106.43
2018-09-06T03:18:48.749Z,101.97
2018-09-06T03:21:16.971Z,109.03
2018-09-06T03:23:45.160Z,100.30
2018-09-06T03:26:16.866Z,106.67
2018-09-06T03:28:45.545Z,92.03
2018-09-06T03:31:14.199Z,95.47
2018-09-06T03:33:42.431Z,93.37
2018-09-06T03:36:10.649Z,104.80
2018-09-06T03:38:38.841Z,106.50
2018-09-06T03:41:07.185Z,102.07
2018-09-06T03:43:35.406Z,98.47
2018-09-06T03:46:04.246Z,94.57
2018-09-06T03:48:32.407Z,86.97
2018-09-06T03:51:00.608Z,98.83
2018-09-06T03:53:28.768Z,81.73
2018-09-06T03:55:56.972Z,99.23
2018-09-06T03:58:25.196Z,104.57
2018-09-06T04:00:53.421Z,96.47
2018-09-06T04:03:21.688Z,118.20
2018-09-06T04:05:49.857Z,114.37
2018-09-06T04:08:18.027Z,107.90
2018-09-06T04:10:46.179Z,122.03
2018-09-06T04:13:14.384Z,113.53
2018-09-06T04:15:42.576Z,106.70
2018-09-06T04:18:10.900Z,108.80
2018-09-06T04:20:39.110Z,111.73
2018-09-06T04:23:07.329Z,109.77
2018-09-06T04:25:35.500Z,117.17
2018-09-06T04:28:03.672Z,114.27
2018-09-06T04:30:31.903Z,122.47
2018-09-06T04:33:00.090Z,147.60
2018-09-06T04:35:28.335Z,140.93
2018-09-06T04:37:56.455Z,130.30
2018-09-06T04:40:24.637Z,138.73
2018-09-06T04:42:52.816Z,123.40
2018-09-06T04:45:21.295Z,139.93
2018-09-06T04:47:49.499Z,117.10
2018-09-06T04:50:17.695Z,135.30
2018-09-06T04:52:46.006Z,137.67
2018-09-06T04:55:15.155Z,131.53
2018-09-06T04:57:43.308Z,133.77
2018-09-06T05:00:11.550Z,155.67
2018-09-06T05:02:39.741Z,137.77
2018-09-06T05:05:07.995Z,143.70
2018-09-06T05:07:36.261Z,142.57
2018-09-06T05:10:04.673Z,134.13
2018-09-06T05:12:32.866Z,133.73
2018-09-06T05:15:01.029Z,135.73
2018-09-06T05:17:29.256Z,126.33
2018-09-06T05:19:57.492Z,95.13
2018-09-06T05:22:25.649Z,103.37
2018-09-06T05:24:53.879Z,108.33
2018-09-06T05:27:22.136Z,107.43
2018-09-06T05:29:50.336Z,104.13
2018-09-06T05:32:18.566Z,119.40
2018-09-06T05:34:46.779Z,115.53
2018-09-06T05:37:14.945Z,113.30
2018-09-06T05:39:43.116Z,114.53
2018-09-06T05:42:11.368Z,114.30
2018-09-06T05:44:39.610Z,134.53
2018-09-06T05:47:07.805Z,122.17
2018-09-06T05:49:36.568Z,130.10
2018-09-06T05:52:04.758Z,107.07
2018-09-06T05:54:32.897Z,102.83
2018-09-06T05:57:01.378Z,94.77
2018-09-06T05:59:29.592Z,95.70
2018-09-06T06:01:57.838Z,105.77
2018-09-06T06:04:26.070Z,141.87
2018-09-06T06:06:54.243Z,136.57
2018-09-06T06:09:22.462Z,138.03
2018-09-06T06:11:50.683Z,137.10
2018-09-06T06:14:18.905Z,136.50
2018-09-06T06:16:47.102Z,131.30
2018-09-06T06:19:15.305Z,128.10
2018-09-06T06:21:49.282Z,115.13
2018-09-06T06:24:17.460Z,117.07
2018-09-06T06:26:45.628Z,110.87
2018-09-06T06:29:13.832Z,105.10
2018-09-06T06:31:42.114Z,116.43
2018-09-06T06:34:10.317Z,99.27
2018-09-06T06:36:38.524Z,91.93
2018-09-06T06:39:09.041Z,92.83
2018-09-06T06:41:37.221Z,95.50
2018-09-06T06:44:05.423Z,108.43
2018-09-06T06:46:33.811Z,100.13
2018-09-06T06:49:02.463Z,105.27
2018-09-06T06:51:30.673Z,103.83
2018-09-06T06:54:00.552Z,103.23
2018-09-06T06:56:28.767Z,98.20
2018-09-06T06:58:57.102Z,85.83
2018-09-06T07:04:18.309Z,106.70
2018-09-06T07:06:46.643Z,91.67
2018-09-06T07:09:14.821Z,91.20
2018-09-06T07:11:43.056Z,86.13
2018-09-06T07:14:11.223Z,92.20
2018-09-06T07:16:39.403Z,97.50
2018-09-06T07:19:07.590Z,94.50
2018-09-06T07:21:35.768Z,90.07
2018-09-06T07:24:03.957Z,89.80
2018-09-06T07:26:32.128Z,88.40
2018-09-06T07:29:00.326Z,89.57
2018-09-06T07:31:28.519Z,94.03
2018-09-06T07:33:56.739Z,94.53
2018-09-06T07:36:24.945Z,92.33
2018-09-06T07:38:53.130Z,88.13
2018-09-06T07:41:21.289Z,91.90
2018-09-06T07:43:49.453Z,83.67
2018-09-06T07:46:17.641Z,79.20
2018-09-06T07:48:45.849Z,90.50
2018-09-06T07:51:15.088Z,97.37
2018-09-06T07:53:43.247Z,81.50
2018-09-06T07:56:11.436Z,83.40
2018-09-06T07:58:39.631Z,72.70
2018-09-06T08:01:07.841Z,73.40
2018-09-06T08:03:35.989Z,87.90
2018-09-06T08:06:04.312Z,89.53
2018-09-06T08:08:32.600Z,76.10
2018-09-06T08:11:00.776Z,80.17
2018-09-06T08:13:29.294Z,87.93
2018-09-06T08:15:57.500Z,91.77
2018-09-06T08:18:25.660Z,75.40
2018-09-06T08:20:53.845Z,76.27
2018-09-06T08:23:22.000Z,80.90
2018-09-06T08:25:50.188Z,84.57
2018-09-06T08:28:18.364Z,78.10
2018-09-06T08:30:47.067Z,108.17
2018-09-06T08:33:15.605Z,98.60
2018-09-06T08:35:43.767Z,92.13
2018-09-06T08:38:11.992Z,99.63
2018-09-06T08:40:40.212Z,87.10
2018-09-06T08:43:08.421Z,94.53
2018-09-06T08:45:36.616Z,90.73
2018-09-06T08:48:04.817Z,93.47
2018-09-06T08:50:32.989Z,99.27
2018-09-06T08:53:01.243Z,99.00
2018-09-06T08:55:29.439Z,152.07
2018-09-06T08:57:57.716Z,106.20
2018-09-06T09:00:25.924Z,97.57
2018-09-06T09:02:54.276Z,91.93
2018-09-06T09:05:22.276Z,102.93
2018-09-06T09:07:50.567Z,96.73
2018-09-06T09:10:18.820Z,108.50
2018-09-06T09:12:47.045Z,106.40
2018-09-06T09:15:15.224Z,106.33
2018-09-06T09:17:43.414Z,110.23
2018-09-06T09:20:11.624Z,106.97
2018-09-06T09:22:39.797Z,104.00
2018-09-06T09:25:08.020Z,108.43
2018-09-06T09:27:36.871Z,102.70
2018-09-06T09:30:05.116Z,102.70
2018-09-06T09:32:33.328Z,99.50
2018-09-06T09:35:01.553Z,104.30
2018-09-06T09:37:29.758Z,95.60
2018-09-06T09:39:58.042Z,92.67
2018-09-06T09:42:26.310Z,90.10
2018-09-06T09:44:54.731Z,87.60
2018-09-06T09:49:52.016Z,101.90
2018-09-06T09:54:48.592Z,93.40
2018-09-06T09:57:16.960Z,103.43
2018-09-06T09:59:45.177Z,97.60
2018-09-06T10:02:18.897Z,103.00
2018-09-06T10:04:52.545Z,117.90
2018-09-06T10:07:26.312Z,116.77
2018-09-06T10:09:54.489Z,114.17
2018-09-06T10:12:22.653Z,132.57
2018-09-06T10:14:50.905Z,111.67
2018-09-06T10:17:19.159Z,122.77
2018-09-06T10:19:47.376Z,134.87
2018-09-06T10:22:15.564Z,125.47
2018-09-06T10:24:43.732Z,132.40
2018-09-06T10:27:11.972Z,126.00
2018-09-06T10:29:40.158Z,119.43
2018-09-06T10:32:08.406Z,111.03
2018-09-06T10:34:36.595Z,105.70
2018-09-06T10:37:04.787Z,104.10
2018-09-06T10:39:32.992Z,98.77
2018-09-06T10:42:01.149Z,94.07
2018-09-06T10:44:29.329Z,93.93
2018-09-06T10:46:57.531Z,89.90
2018-09-06T10:49:25.736Z,81.90
2018-09-06T10:51:53.916Z,100.73
2018-09-06T10:54:22.211Z,88.30
2018-09-06T10:56:50.407Z,85.00
2018-09-06T10:59:18.601Z,89.07
2018-09-06T11:01:46.908Z,97.20
2018-09-06T11:04:15.043Z,104.63
2018-09-06T11:06:43.204Z,91.73
2018-09-06T11:09:11.400Z,96.30
2018-09-06T11:11:39.701Z,88.03
2018-09-06T11:14:08.155Z,102.20
2018-09-06T11:16:36.357Z,87.33
2018-09-06T11:19:04.506Z,81.30
2018-09-06T11:21:32.824Z,84.70
2018-09-06T11:24:00.984Z,90.47
2018-09-06T11:26:29.221Z,90.13
2018-09-06T11:28:57.521Z,95.33
2018-09-06T11:31:25.880Z,91.90
2018-09-06T11:33:54.132Z,81.30
2018-09-06T11:36:22.387Z,83.67
2018-09-06T11:38:50.604Z,93.37
2018-09-06T11:41:18.780Z,86.10
2018-09-06T11:43:46.990Z,83.53
2018-09-06T11:46:15.185Z,88.73
2018-09-06T11:48:43.388Z,85.17
2018-09-06T11:51:11.599Z,75.60
2018-09-06T11:53:39.885Z,54.80
2018-09-06T11:56:08.243Z,57.47
2018-09-06T11:58:36.452Z,60.43
2018-09-06T12:01:04.814Z,70.60
2018-09-06T12:03:33.292Z,55.43
2018-09-06T12:06:01.619Z,60.30
2018-09-06T12:08:29.722Z,68.43
2018-09-06T12:10:58.468Z,62.80
2018-09-06T12:13:26.749Z,61.30
2018-09-06T12:15:54.945Z,69.40
2018-09-06T12:18:23.744Z,69.70
2018-09-06T12:20:51.925Z,80.93
2018-09-06T12:23:20.080Z,73.90
2018-09-06T12:25:48.414Z,73.03
2018-09-06T12:28:16.431Z,76.47
2018-09-06T12:30:44.644Z,91.60
2018-09-06T12:33:12.892Z,79.33
2018-09-06T12:35:41.005Z,73.67
2018-09-06T12:38:09.278Z,92.08
2018-09-06T12:40:37.475Z,86.10
2018-09-06T12:43:05.891Z,75.67
2018-09-06T12:45:34.066Z,68.80
2018-09-06T12:48:02.261Z,76.33
2018-09-06T12:50:30.512Z,85.63
2018-09-06T12:52:58.667Z,72.80
2018-09-06T12:55:26.991Z,74.83
2018-09-06T12:57:55.184Z,75.37
2018-09-06T13:00:23.411Z,64.03
2018-09-06T13:02:51.553Z,59.73
2018-09-06T13:05:19.789Z,66.17
2018-09-06T13:07:47.936Z,65.80
2018-09-06T13:10:16.214Z,60.27
2018-09-06T13:12:44.412Z,62.33
2018-09-06T13:15:12.813Z,59.63
2018-09-06T13:17:41.074Z,61.63
2018-09-06T13:20:09.257Z,57.80
2018-09-06T13:22:37.480Z,51.83
2018-09-06T13:25:06.127Z,63.07
2018-09-06T13:27:34.471Z,65.10
2018-09-06T13:30:02.692Z,67.00
2018-09-06T13:32:30.916Z,65.97
2018-09-06T13:34:59.115Z,74.07
2018-09-06T13:37:27.335Z,69.83
2018-09-06T13:39:55.568Z,69.70
2018-09-06T13:42:24.093Z,68.70
2018-09-06T13:44:52.276Z,67.37
2018-09-06T13:47:20.450Z,67.77
2018-09-06T13:49:48.676Z,73.57
2018-09-06T13:52:16.945Z,73.83
2018-09-06T13:54:45.133Z,70.90
2018-09-06T13:57:13.327Z,69.40
2018-09-06T13:59:41.575Z,71.20
2018-09-06T14:02:09.780Z,76.33
2018-09-06T14:04:37.998Z,82.90
2018-09-06T14:07:07.256Z,74.07
2018-09-06T14:09:41.392Z,78.27
2018-09-06T14:12:09.622Z,66.23
2018-09-06T14:14:37.798Z,64.77
2018-09-06T14:17:06.022Z,63.37
2018-09-06T14:19:34.248Z,65.30
2018-09-06T14:22:02.524Z,70.77
2018-09-06T14:24:30.743Z,71.23
2018-09-06T14:26:59.230Z,76.67
2018-09-06T14:29:27.426Z,70.80
2018-09-06T14:31:55.656Z,76.53
2018-09-06T14:34:24.116Z,77.63
2018-09-06T14:36:52.310Z,69.37
2018-09-06T14:39:20.549Z,62.50
2018-09-06T14:41:48.750Z,59.73
2018-09-06T14:44:16.981Z,66.33
2018-09-06T14:46:45.194Z,63.20
2018-09-06T14:49:13.394Z,67.87
2018-09-06T14:51:41.633Z,70.70
2018-09-06T14:54:09.884Z,66.97
2018-09-06T14:56:38.084Z,71.97
2018-09-06T14:59:06.265Z,69.40
2018-09-06T15:01:34.703Z,71.13
2018-09-06T15:04:02.817Z,55.17
2018-09-06T15:06:31.042Z,56.33
2018-09-06T15:08:59.276Z,62.50
2018-09-06T15:11:27.459Z,71.33
2018-09-06T15:13:55.701Z,64.57
2018-09-06T15:16:23.883Z,61.43
2018-09-06T15:18:52.064Z,72.43
2018-09-06T15:21:20.245Z,66.97
2018-09-06T15:23:48.427Z,68.27
2018-09-06T15:26:16.590Z,78.93
2018-09-06T15:28:44.765Z,76.87
2018-09-06T15:31:12.961Z,72.17
2018-09-06T15:33:41.113Z,69.97
2018-09-06T15:36:09.285Z,69.03
2018-09-06T15:38:37.473Z,67.50
2018-09-06T15:41:05.685Z,61.73
2018-09-06T15:43:33.876Z,63.13
2018-09-06T15:46:02.565Z,69.10
2018-09-06T15:48:30.791Z,58.83
2018-09-06T15:50:59.004Z,63.77
2018-09-06T15:53:27.202Z,71.00
2018-09-06T15:55:55.444Z,69.90
2018-09-06T15:58:23.573Z,73.30
2018-09-06T16:00:51.772Z,83.67
2018-09-06T16:03:19.977Z,74.80
2018-09-06T16:05:48.285Z,66.23
2018-09-06T16:08:16.482Z,67.07
2018-09-06T16:10:44.689Z,78.90
2018-09-06T16:13:12.916Z,73.97
2018-09-06T16:15:41.107Z,62.97
2018-09-06T16:18:09.296Z,75.23
2018-09-06T16:20:37.524Z,58.47
2018-09-06T16:23:05.805Z,57.97
2018-09-06T16:25:34.147Z,68.87
2018-09-06T16:28:02.366Z,60.73
2018-09-06T16:30:30.557Z,65.70
2018-09-06T16:32:58.797Z,98.47
2018-09-06T16:35:27.076Z,62.50
2018-09-06T16:37:55.297Z,65.33
2018-09-06T16:40:23.485Z,68.17
2018-09-06T16:42:51.759Z,59.97
2018-09-06T16:45:19.956Z,59.43
2018-09-06T16:47:48.132Z,62.83
2018-09-06T16:50:16.310Z,59.77
2018-09-06T16:52:44.501Z,58.37
2018-09-06T16:55:12.698Z,65.33
2018-09-06T16:57:40.902Z,67.03
2018-09-06T17:00:09.120Z,68.60
2018-09-06T17:02:37.627Z,64.53
2018-09-06T17:05:05.833Z,64.53
2018-09-06T17:07:34.101Z,67.17
2018-09-06T17:10:02.286Z,67.40
2018-09-06T17:12:30.501Z,75.97
2018-09-06T17:14:58.667Z,69.67
2018-09-06T17:17:26.837Z,82.43
2018-09-06T17:19:55.011Z,84.00
2018-09-06T17:22:23.223Z,76.57
2018-09-06T17:24:51.410Z,63.23
2018-09-06T17:27:19.552Z,72.53
2018-09-06T17:29:47.781Z,68.00
2018-09-06T17:32:15.937Z,68.40
2018-09-06T17:34:44.125Z,85.53
2018-09-06T17:37:13.480Z,67.27
2018-09-06T17:39:41.667Z,74.80
2018-09-06T17:42:09.882Z,81.20
2018-09-06T17:44:38.144Z,77.33
2018-09-06T17:47:06.297Z,69.50
2018-09-06T17:49:34.488Z,68.73
2018-09-06T17:52:02.700Z,70.70
2018-09-06T17:54:31.012Z,73.00
2018-09-06T17:56:59.253Z,73.63
2018-09-06T17:59:27.469Z,75.83
2018-09-06T18:01:55.660Z,69.93
2018-09-06T18:04:23.891Z,83.83
2018-09-06T18:06:52.133Z,69.37
2018-09-06T18:09:21.855Z,79.67
2018-09-06T18:11:50.033Z,78.63
2018-09-06T18:14:18.259Z,116.37
2018-09-06T18:16:46.464Z,80.50
2018-09-06T18:19:14.679Z,83.50
2018-09-06T18:21:42.896Z,71.27
2018-09-06T18:24:11.094Z,84.10
2018-09-06T18:26:40.048Z,72.33
2018-09-06T18:29:08.229Z,81.37
2018-09-06T18:31:37.435Z,80.87
2018-09-06T18:34:05.727Z,90.50
2018-09-06T18:36:34.102Z,90.33
2018-09-06T18:39:02.371Z,87.73
2018-09-06T18:41:30.586Z,78.93
2018-09-06T18:43:59.369Z,87.73
2018-09-06T18:46:27.533Z,86.13
2018-09-06T18:48:56.153Z,83.53
2018-09-06T18:51:24.371Z,86.00
2018-09-06T18:53:52.582Z,78.97
2018-09-06T18:56:20.773Z,81.47
2018-09-06T18:58:48.932Z,72.10
2018-09-06T19:01:17.149Z,75.87
2018-09-06T19:03:45.327Z,50.37
2018-09-06T19:06:13.543Z,46.63
2018-09-06T19:08:41.749Z,45.13
2018-09-06T19:11:09.973Z,48.23
2018-09-06T19:13:38.167Z,47.27
2018-09-06T19:16:06.368Z,39.80
2018-09-06T19:18:34.536Z,29.10
2018-09-06T19:21:02.720Z,24.30
2018-09-06T19:23:30.903Z,20.37
2018-09-06T19:25:59.110Z,23.43
2018-09-06T19:28:27.274Z,21.97
2018-09-06T19:30:55.452Z,21.23
2018-09-06T19:33:23.949Z,23.43
2018-09-06T19:35:52.153Z,27.53
2018-09-06T19:38:20.321Z,21.17
2018-09-06T19:40:48.552Z,21.80
2018-09-06T19:43:16.753Z,19.17
2018-09-06T19:45:44.947Z,22.43
2018-09-06T19:48:13.204Z,23.43
2018-09-06T19:50:41.425Z,22.13
2018-09-06T19:53:09.661Z,26.80
2018-09-06T19:55:37.862Z,23.47
2018-09-06T19:58:06.056Z,20.17
2018-09-06T20:00:34.270Z,22.63
2018-09-06T20:03:02.490Z,19.30
2018-09-06T20:05:30.711Z,20.77
2018-09-06T20:07:58.908Z,17.83
2018-09-06T20:10:27.084Z,19.70
2018-09-06T20:12:55.288Z,20.90
2018-09-06T20:15:23.476Z,24.33
2018-09-06T20:17:51.637Z,20.07
2018-09-06T20:20:19.849Z,23.77
2018-09-06T20:22:48.019Z,22.10
2018-09-06T20:25:16.198Z,22.90
2018-09-06T20:27:44.428Z,26.77
2018-09-06T20:30:12.609Z,24.47
2018-09-06T20:32:40.821Z,24.20
2018-09-06T20:35:09.055Z,24.97
2018-09-06T20:37:37.219Z,21.00
2018-09-06T20:40:05.573Z,20.73
2018-09-06T20:42:33.798Z,21.07
2018-09-06T20:45:02.016Z,24.50
2018-09-06T20:47:30.217Z,22.50
2018-09-06T20:49:58.447Z,15.90
2018-09-06T20:52:26.617Z,18.73
2018-09-06T20:54:56.184Z,19.83
2018-09-06T20:57:24.374Z,17.80
2018-09-06T20:59:52.565Z,22.40
2018-09-06T21:02:22.680Z,21.00
2018-09-06T21:04:51.357Z,18.33
2018-09-06T21:07:19.562Z,19.00
2018-09-06T21:09:47.811Z,16.37
2018-09-06T21:12:15.976Z,22.63
2018-09-06T21:14:44.238Z,18.13
2018-09-06T21:17:12.425Z,18.47
2018-09-06T21:19:40.603Z,16.90
2018-09-06T21:22:08.829Z,15.63
2018-09-06T21:24:37.046Z,20.47
2018-09-06T21:27:05.319Z,15.73
2018-09-06T21:29:33.539Z,19.40
2018-09-06T21:32:01.717Z,20.60
2018-09-06T21:34:29.889Z,17.47
2018-09-06T21:36:58.059Z,14.73
2018-09-06T21:39:26.233Z,15.30
2018-09-06T21:41:54.379Z,16.90
2018-09-06T21:44:22.608Z,18.87
2018-09-06T21:46:50.809Z,18.80
2018-09-06T21:49:18.989Z,17.13
2018-09-06T21:51:47.208Z,15.57
2018-09-06T21:54:15.444Z,24.77
2018-09-06T21:56:43.625Z,18.60
2018-09-06T21:59:11.827Z,14.70
2018-09-06T22:01:40.043Z,18.67
2018-09-06T22:04:09.088Z,14.93
2018-09-06T22:06:38.272Z,23.43
2018-09-06T22:09:08.345Z,19.70
2018-09-06T22:11:36.549Z,18.67
2018-09-06T22:14:04.701Z,20.80
2018-09-06T22:16:32.871Z,16.87
2018-09-06T22:19:01.052Z,16.70
2018-09-06T22:21:29.256Z,14.70
2018-09-06T22:23:57.613Z,21.53
2018-09-06T22:26:25.787Z,20.30
2018-09-06T22:28:53.966Z,18.13
2018-09-06T22:31:22.163Z,17.60
2018-09-06T22:33:50.380Z,16.60
2018-09-06T22:36:18.638Z,15.50
2018-09-06T22:38:46.944Z,18.50
2018-09-06T22:41:15.202Z,20.73
2018-09-06T22:43:43.374Z,21.90
2018-09-06T22:46:11.554Z,21.90
2018-09-06T22:48:39.740Z,22.13
2018-09-06T22:51:07.912Z,25.63
2018-09-06T22:53:36.067Z,25.50
2018-09-06T22:56:04.527Z,16.70
2018-09-06T22:58:32.725Z,16.93
2018-09-06T23:01:00.902Z,19.20
2018-09-06T23:03:39.473Z,18.63
2018-09-06T23:06:07.945Z,23.60
2018-09-06T23:08:36.440Z,16.70
2018-09-06T23:11:04.824Z,19.43
2018-09-06T23:13:33.054Z,18.03
2018-09-06T23:16:01.224Z,24.03
2018-09-06T23:18:29.424Z,15.20
2018-09-06T23:20:57.612Z,24.00
2018-09-06T23:23:25.806Z,15.80
2018-09-06T23:25:54.134Z,22.80
2018-09-06T23:28:22.332Z,16.23
2018-09-06T23:30:50.499Z,23.10
2018-09-06T23:33:18.709Z,27.87
2018-09-06T23:35:46.884Z,15.77
2018-09-06T23:38:16.819Z,26.13
2018-09-06T23:40:50.262Z,17.93
2018-09-06T23:43:18.456Z,16.73
2018-09-06T23:45:46.669Z,20.37
2018-09-06T23:48:14.946Z,18.97
2018-09-06T23:50:43.138Z,24.00
2018-09-06T23:53:11.308Z,21.30
2018-09-06T23:55:39.496Z,18.60
2018-09-06T23:58:07.664Z,20.57
